Terminal Aerodrome Forecast
Issued by NWS

Home | Current Version | Previous Version | Text Only | Print | Product List | Glossary On
Versions: 1 2 3 4 5 6 7 8 9 10 11 12 13 14 15 16 17 18 19 20 21 22 23 24
136
FTUS41 KGYX 260911 AAC
TAFPSM
TAF AMD
KPSM 260911Z 2609/2706 02010G20KT 3SM RA SCT003 OVC007
     FM261000 02010KT 2SM RADZ OVC007
     FM261300 36010KT 3SM -SHRA OVC012
     FM261600 35010KT P6SM OVC015 PROB30 2618/2624 4SM -SHRA OVC012
     FM270000 34008KT 3SM BR OVC010=

USA.gov is the U.S. government's official web portal to all federal, state and local government web resources and services.